createdAt,value
2017-04-23T00:00:09.706Z,0
2017-04-23T00:01:09.676Z,0
2017-04-23T00:02:09.965Z,0
2017-04-23T00:03:09.963Z,0
2017-04-23T00:04:10.298Z,0
2017-04-23T00:05:09.631Z,0
2017-04-23T00:06:09.922Z,0
2017-04-23T00:07:09.638Z,0
2017-04-23T00:08:09.898Z,0
2017-04-23T00:09:09.831Z,0
2017-04-23T00:10:09.574Z,0
2017-04-23T00:11:09.856Z,0
2017-04-23T00:12:09.846Z,0
2017-04-23T00:13:09.829Z,0
2017-04-23T00:14:10.118Z,0
2017-04-23T00:15:10.169Z,0
2017-04-23T00:16:09.791Z,0
2017-04-23T00:17:09.793Z,0
2017-04-23T00:18:09.775Z,0
2017-04-23T00:19:10.005Z,0
2017-04-23T00:20:09.442Z,0
2017-04-23T00:21:09.734Z,0
2017-04-23T00:22:09.720Z,0
2017-04-23T00:23:09.715Z,0
2017-04-23T00:24:09.947Z,0
2017-04-23T00:25:09.693Z,0
2017-04-23T00:26:09.671Z,0
2017-04-23T00:27:09.656Z,0
2017-04-23T00:28:09.645Z,0
2017-04-23T00:29:09.930Z,0
2017-04-23T00:30:09.324Z,0
2017-04-23T00:31:09.613Z,0
2017-04-23T00:32:09.593Z,0
2017-04-23T00:33:09.585Z,0
2017-04-23T00:34:09.874Z,0
2017-04-23T00:35:09.564Z,0
2017-04-23T00:36:08.938Z,0
2017-04-23T00:37:09.532Z,0
2017-04-23T00:38:09.526Z,0
2017-04-23T00:39:09.806Z,0
2017-04-23T00:40:09.499Z,0
2017-04-23T00:41:09.482Z,0
2017-04-23T00:42:09.473Z,0
2017-04-23T00:43:09.460Z,0
2017-04-23T00:44:09.697Z,0
2017-04-23T00:45:09.438Z,0
2017-04-23T00:46:09.422Z,0
2017-04-23T00:47:09.408Z,0
2017-04-23T00:48:09.403Z,0
2017-04-23T00:49:09.630Z,0
2017-04-23T00:50:09.370Z,0
2017-04-23T00:51:09.060Z,0
2017-04-23T00:52:09.346Z,0
2017-04-23T00:53:09.336Z,0
2017-04-23T00:54:09.619Z,0
2017-04-23T00:55:09.308Z,0
2017-04-23T00:56:08.990Z,0
2017-04-23T00:57:09.279Z,0
2017-04-23T00:58:09.272Z,0
2017-04-23T00:59:09.514Z,0
2017-04-23T01:00:09.251Z,0
2017-04-23T01:01:09.231Z,0
2017-04-23T01:02:09.231Z,0
2017-04-23T01:03:08.906Z,0
2017-04-23T01:04:09.501Z,0
2017-04-23T01:05:09.188Z,0
2017-04-23T01:06:08.565Z,0
2017-04-23T01:07:09.162Z,0
2017-04-23T01:08:09.150Z,0
2017-04-23T01:09:09.388Z,0
2017-04-23T01:10:09.123Z,0
2017-04-23T01:11:09.115Z,0
2017-04-23T01:12:09.105Z,0
2017-04-23T01:13:08.784Z,0
2017-04-23T01:14:09.074Z,0
2017-04-23T01:15:09.341Z,0
2017-04-23T01:16:09.050Z,0
2017-04-23T01:17:09.038Z,0
2017-04-23T01:18:09.030Z,0
2017-04-23T01:19:09.016Z,0
2017-04-23T01:20:09.257Z,0
2017-04-23T01:21:08.996Z,0
2017-04-23T01:22:08.677Z,0
2017-04-23T01:23:08.970Z,0
2017-04-23T01:24:08.653Z,0
2017-04-23T01:25:09.253Z,0
2017-04-23T01:26:08.938Z,0
2017-04-23T01:27:08.920Z,0
2017-04-23T01:28:08.909Z,0
2017-04-23T01:29:08.902Z,0
2017-04-23T01:30:09.193Z,0
2017-04-23T01:31:08.875Z,0
2017-04-23T01:32:08.861Z,0
2017-04-23T01:33:08.849Z,0
2017-04-23T01:34:08.838Z,0
2017-04-23T01:35:09.129Z,0
2017-04-23T01:36:08.812Z,0
2017-04-23T01:37:08.801Z,0
2017-04-23T01:38:08.789Z,0
2017-04-23T01:39:08.476Z,0
2017-04-23T01:40:08.713Z,0
2017-04-23T01:41:08.758Z,0
2017-04-23T01:42:08.440Z,0
2017-04-23T01:43:08.734Z,0
2017-04-23T01:44:08.721Z,0
2017-04-23T01:45:09.010Z,0
2017-04-23T01:46:08.697Z,0
2017-04-23T01:47:08.686Z,0
2017-04-23T01:48:08.065Z,0
2017-04-23T01:49:08.382Z,0
2017-04-23T01:50:08.647Z,0
2017-04-23T01:51:08.637Z,0
2017-04-23T01:52:08.323Z,0
2017-04-23T01:53:08.633Z,0
2017-04-23T01:54:08.321Z,0
2017-04-23T01:55:08.839Z,0
2017-04-23T01:56:08.584Z,0
2017-04-23T01:57:08.592Z,0
2017-04-23T01:58:08.559Z,0
2017-04-23T01:59:08.546Z,0
2017-04-23T02:00:08.541Z,0
2017-04-23T02:01:08.525Z,0
2017-04-23T02:02:08.508Z,0
2017-04-23T02:03:08.499Z,0
2017-04-23T02:04:08.489Z,0
2017-04-23T02:05:08.740Z,0
2017-04-23T02:06:08.466Z,0
2017-04-23T02:07:08.148Z,0
2017-04-23T02:08:08.442Z,0
2017-04-23T02:09:08.440Z,0
2017-04-23T02:10:08.670Z,0
2017-04-23T02:11:08.406Z,0
2017-04-23T02:12:08.397Z,0
2017-04-23T02:13:08.384Z,0
2017-04-23T02:14:08.376Z,0
2017-04-23T02:15:08.690Z,0
2017-04-23T02:16:08.360Z,0
2017-04-23T02:17:08.339Z,0
2017-04-23T02:18:07.728Z,0
2017-04-23T02:19:08.319Z,0
2017-04-23T02:20:08.305Z,0
2017-04-23T02:21:08.312Z,0
2017-04-23T02:22:07.982Z,0
2017-04-23T02:23:08.279Z,0
2017-04-23T02:24:07.963Z,0
2017-04-23T02:25:08.508Z,0
2017-04-23T02:26:07.634Z,0
2017-04-23T02:27:07.923Z,0
2017-04-23T02:28:08.219Z,0
2017-04-23T02:29:07.607Z,0
2017-04-23T02:30:08.443Z,0
2017-04-23T02:31:08.206Z,0
2017-04-23T02:32:07.566Z,0
2017-04-23T02:33:07.862Z,0
2017-04-23T02:34:08.153Z,0
2017-04-23T02:35:08.086Z,0
2017-04-23T02:36:08.159Z,0
2017-04-23T02:37:07.814Z,0
2017-04-23T02:38:08.105Z,0
2017-04-23T02:39:08.098Z,0
2017-04-23T02:40:07.728Z,0
2017-04-23T02:41:08.075Z,0
2017-04-23T02:42:07.765Z,0
2017-04-23T02:43:08.066Z,0
2017-04-23T02:44:07.736Z,0
2017-04-23T02:45:08.332Z,0
2017-04-23T02:46:08.013Z,0
2017-04-23T02:47:08.018Z,0
2017-04-23T02:48:08.000Z,0
2017-04-23T02:49:07.984Z,0
2017-04-23T02:50:08.277Z,0
2017-04-23T02:51:07.964Z,0
2017-04-23T02:52:07.348Z,0
2017-04-23T02:53:07.958Z,0
2017-04-23T02:54:07.952Z,0
2017-04-23T02:55:07.865Z,0
2017-04-23T02:56:07.909Z,0
2017-04-23T02:57:07.603Z,0
2017-04-23T02:58:07.887Z,0
2017-04-23T02:59:07.883Z,0
2017-04-23T03:00:07.860Z,0
2017-04-23T03:01:07.851Z,0
2017-04-23T03:02:07.844Z,0
2017-04-23T03:03:07.835Z,0
2017-04-23T03:04:07.820Z,0
2017-04-23T03:05:08.060Z,0
2017-04-23T03:06:07.798Z,0
2017-04-23T03:07:07.793Z,0
2017-04-23T03:08:07.477Z,0
2017-04-23T03:09:07.460Z,0
2017-04-23T03:10:08.105Z,0
2017-04-23T03:11:07.739Z,0
2017-04-23T03:12:07.730Z,0
2017-04-23T03:13:07.722Z,0
2017-04-23T03:14:07.407Z,0
2017-04-23T03:15:07.950Z,0
2017-04-23T03:16:07.690Z,0
2017-04-23T03:17:07.674Z,0
2017-04-23T03:18:07.672Z,0
2017-04-23T03:19:07.656Z,0
2017-04-23T03:20:07.643Z,0
2017-04-23T03:21:07.634Z,0
2017-04-23T03:22:07.317Z,0
2017-04-23T03:23:07.614Z,0
2017-04-23T03:24:07.604Z,0
2017-04-23T03:25:07.848Z,0
2017-04-23T03:26:07.579Z,0
2017-04-23T03:27:07.570Z,0
2017-04-23T03:28:07.566Z,0
2017-04-23T03:29:07.247Z,0
2017-04-23T03:30:07.783Z,0
2017-04-23T03:31:07.525Z,0
2017-04-23T03:32:07.213Z,0
2017-04-23T03:33:07.201Z,0
2017-04-23T03:34:07.185Z,0
2017-04-23T03:35:07.430Z,0
2017-04-23T03:36:07.475Z,0
2017-04-23T03:37:07.459Z,0
2017-04-23T03:38:07.811Z,0
2017-04-23T03:39:07.447Z,0
2017-04-23T03:40:06.818Z,0
2017-04-23T03:41:07.667Z,0
2017-04-23T03:42:07.402Z,0
2017-04-23T03:43:07.397Z,0
2017-04-23T03:44:07.387Z,5
2017-04-23T03:45:07.372Z,5
2017-04-23T03:46:07.711Z,5
2017-04-23T03:47:07.351Z,5
2017-04-23T03:48:07.337Z,5
2017-04-23T03:49:07.335Z,5
2017-04-23T03:50:07.018Z,5
2017-04-23T03:51:07.607Z,5
2017-04-23T03:52:07.291Z,5
2017-04-23T03:53:07.289Z,5
2017-04-23T03:54:06.971Z,10
2017-04-23T03:55:06.958Z,10
2017-04-23T03:56:07.505Z,10
2017-04-23T03:57:07.242Z,10
2017-04-23T03:58:07.237Z,10
2017-04-23T03:59:07.220Z,10
2017-04-23T04:00:06.906Z,10
2017-04-23T04:01:07.150Z,10
2017-04-23T04:02:07.186Z,10
2017-04-23T04:03:07.178Z,10
2017-04-23T04:04:07.165Z,10
2017-04-23T04:05:07.156Z,15
2017-04-23T04:06:07.397Z,15
2017-04-23T04:07:07.131Z,15
2017-04-23T04:08:07.121Z,15
2017-04-23T04:09:07.111Z,15
2017-04-23T04:10:07.099Z,20
2017-04-23T04:11:07.345Z,20
2017-04-23T04:12:07.081Z,25
2017-04-23T04:13:07.069Z,25
2017-04-23T04:14:07.054Z,25
2017-04-23T04:15:06.747Z,25
2017-04-23T04:16:07.333Z,25
2017-04-23T04:17:07.023Z,30
2017-04-23T04:18:07.016Z,30
2017-04-23T04:19:07.005Z,35
2017-04-23T04:20:06.691Z,35
2017-04-23T04:21:06.630Z,35
2017-04-23T04:22:06.968Z,40
2017-04-23T04:23:06.959Z,40
2017-04-23T04:24:06.950Z,40
2017-04-23T04:25:06.942Z,40
2017-04-23T04:26:07.183Z,40
2017-04-23T04:27:06.915Z,40
2017-04-23T04:28:06.906Z,45
2017-04-23T04:29:06.897Z,50
2017-04-23T04:30:06.887Z,50
2017-04-23T04:31:07.229Z,55
2017-04-23T04:32:06.562Z,50
2017-04-23T04:33:06.858Z,45
2017-04-23T04:34:06.843Z,45
2017-04-23T04:35:06.833Z,50
2017-04-23T04:36:06.766Z,55
2017-04-23T04:37:06.816Z,60
2017-04-23T04:38:06.200Z,60
2017-04-23T04:39:06.789Z,65
2017-04-23T04:40:06.781Z,70
2017-04-23T04:41:07.065Z,70
2017-04-23T04:42:06.758Z,75
2017-04-23T04:43:06.749Z,70
2017-04-23T04:44:06.436Z,70
2017-04-23T04:45:06.724Z,65
2017-04-23T04:46:07.071Z,65
2017-04-23T04:47:06.703Z,65
2017-04-23T04:48:06.697Z,70
2017-04-23T04:49:06.685Z,70
2017-04-23T04:50:06.670Z,70
2017-04-23T04:51:07.011Z,65
2017-04-23T04:52:06.657Z,60
2017-04-23T04:53:06.642Z,60
2017-04-23T04:54:06.334Z,60
2017-04-23T04:55:06.328Z,60
2017-04-23T04:56:06.873Z,65
2017-04-23T04:57:06.600Z,65
2017-04-23T04:58:06.623Z,70
2017-04-23T04:59:06.591Z,75
2017-04-23T05:00:06.568Z,75
2017-04-23T05:01:06.806Z,70
2017-04-23T05:02:06.547Z,70
2017-04-23T05:03:06.537Z,65
2017-04-23T05:04:06.531Z,65
2017-04-23T05:05:06.514Z,75
2017-04-23T05:06:06.759Z,85
2017-04-23T05:07:06.493Z,85
2017-04-23T05:08:06.489Z,90
2017-04-23T05:09:06.474Z,95
2017-04-23T05:10:06.463Z,100
2017-04-23T05:11:06.705Z,90
2017-04-23T05:12:06.443Z,80
2017-04-23T05:13:06.437Z,70
2017-04-23T05:14:06.142Z,95
2017-04-23T05:15:06.414Z,100
2017-04-23T05:16:06.651Z,120
2017-04-23T05:17:06.394Z,125
2017-04-23T05:18:06.385Z,120
2017-04-23T05:19:06.374Z,120
2017-04-23T05:20:06.364Z,120
2017-04-23T05:21:06.349Z,120
2017-04-23T05:22:06.345Z,120
2017-04-23T05:23:06.342Z,120
2017-04-23T05:24:06.323Z,125
2017-04-23T05:25:06.309Z,130
2017-04-23T05:26:06.652Z,120
2017-04-23T05:27:06.288Z,115
2017-04-23T05:28:06.281Z,110
2017-04-23T05:29:05.969Z,105
2017-04-23T05:30:06.271Z,105
2017-04-23T05:31:06.516Z,100
2017-04-23T05:32:06.243Z,110
2017-04-23T05:33:06.240Z,110
2017-04-23T05:34:06.233Z,125
2017-04-23T05:35:06.214Z,135
2017-04-23T05:36:06.456Z,145
2017-04-23T05:37:06.192Z,150
2017-04-23T05:38:06.184Z,150
2017-04-23T05:39:06.174Z,125
2017-04-23T05:40:06.165Z,120
2017-04-23T05:41:06.452Z,125
2017-04-23T05:42:06.144Z,130
2017-04-23T05:43:06.141Z,140
2017-04-23T05:44:06.137Z,150
2017-04-23T05:45:06.116Z,145
2017-04-23T05:46:06.405Z,135
2017-04-23T05:47:06.100Z,140
2017-04-23T05:48:06.085Z,145
2017-04-23T05:49:06.076Z,130
2017-04-23T05:50:06.066Z,140
2017-04-23T05:51:06.412Z,145
2017-04-23T05:52:06.051Z,145
2017-04-23T05:53:06.057Z,150
2017-04-23T05:54:06.033Z,160
2017-04-23T05:55:06.032Z,165
2017-04-23T05:56:06.273Z,175
2017-04-23T05:57:06.004Z,185
2017-04-23T05:58:06.018Z,185
2017-04-23T05:59:05.984Z,185
2017-04-23T06:00:05.675Z,185
2017-04-23T06:01:05.910Z,180
2017-04-23T06:02:05.957Z,175
2017-04-23T06:03:05.955Z,175
2017-04-23T06:04:05.942Z,185
2017-04-23T06:05:05.939Z,215
2017-04-23T06:06:06.220Z,225
2017-04-23T06:07:05.911Z,235
2017-04-23T06:08:05.898Z,245
2017-04-23T06:09:05.889Z,240
2017-04-23T06:10:05.886Z,235
2017-04-23T06:11:06.122Z,225
2017-04-23T06:12:05.863Z,245
2017-04-23T06:13:05.866Z,270
2017-04-23T06:14:05.845Z,290
2017-04-23T06:15:05.538Z,300
2017-04-23T06:16:06.129Z,300
2017-04-23T06:17:05.821Z,285
2017-04-23T06:18:05.812Z,285
2017-04-23T06:19:05.803Z,290
2017-04-23T06:20:05.802Z,305
2017-04-23T06:21:06.134Z,320
2017-04-23T06:22:05.476Z,335
2017-04-23T06:23:05.769Z,315
2017-04-23T06:24:05.763Z,330
2017-04-23T06:25:05.753Z,365
2017-04-23T06:26:05.437Z,375
2017-04-23T06:27:05.431Z,420
2017-04-23T06:28:05.727Z,445
2017-04-23T06:29:05.725Z,455
2017-04-23T06:30:05.715Z,475
2017-04-23T06:31:06.001Z,470
2017-04-23T06:32:05.703Z,460
2017-04-23T06:33:05.689Z,685
2017-04-23T06:34:05.384Z,335
2017-04-23T06:35:05.370Z,380
2017-04-23T06:36:05.912Z,425
2017-04-23T06:37:05.354Z,480
2017-04-23T06:38:05.652Z,530
2017-04-23T06:39:05.653Z,580
2017-04-23T06:40:05.337Z,525
2017-04-23T06:41:05.879Z,515
2017-04-23T06:42:05.318Z,505
2017-04-23T06:43:05.616Z,510
2017-04-23T06:44:05.611Z,485
2017-04-23T06:45:05.603Z,455
2017-04-23T06:46:05.847Z,415
2017-04-23T06:47:05.587Z,385
2017-04-23T06:48:05.584Z,365
2017-04-23T06:49:05.580Z,315
2017-04-23T06:50:05.573Z,285
2017-04-23T06:51:05.607Z,290
2017-04-23T06:52:05.561Z,260
2017-04-23T06:53:05.551Z,205
2017-04-23T06:54:05.543Z,185
2017-04-23T06:55:05.538Z,205
2017-04-23T06:56:05.848Z,235
2017-04-23T06:57:05.531Z,250
2017-04-23T06:58:05.520Z,275
2017-04-23T06:59:05.523Z,365
2017-04-23T07:00:05.215Z,415
2017-04-23T07:01:05.746Z,360
2017-04-23T07:02:05.493Z,315
2017-04-23T07:03:05.484Z,265
2017-04-23T07:04:05.478Z,225
2017-04-23T07:05:05.175Z,240
2017-04-23T07:06:05.411Z,265
2017-04-23T07:07:05.457Z,285
2017-04-23T07:08:05.455Z,255
2017-04-23T07:09:05.443Z,245
2017-04-23T07:10:05.443Z,225
2017-04-23T07:11:05.678Z,230
2017-04-23T07:12:05.114Z,230
2017-04-23T07:13:05.111Z,220
2017-04-23T07:14:05.409Z,185
2017-04-23T07:15:05.402Z,160
2017-04-23T07:16:05.091Z,180
2017-04-23T07:17:05.736Z,220
2017-04-23T07:18:05.077Z,245
2017-04-23T07:19:05.377Z,215
2017-04-23T07:20:05.364Z,215
2017-04-23T07:21:05.052Z,245
2017-04-23T07:22:05.595Z,350
2017-04-23T07:23:05.348Z,470
2017-04-23T07:24:05.338Z,505
2017-04-23T07:25:05.028Z,510
2017-04-23T07:26:05.324Z,485
2017-04-23T07:27:05.617Z,375
2017-04-23T07:28:05.301Z,320
2017-04-23T07:29:05.298Z,275
2017-04-23T07:30:05.291Z,235
2017-04-23T07:31:04.979Z,245
2017-04-23T07:32:05.270Z,295
2017-04-23T07:33:05.266Z,395
2017-04-23T07:34:04.993Z,400
2017-04-23T07:35:05.287Z,310
2017-04-23T07:36:05.249Z,270
2017-04-23T07:37:05.185Z,250
2017-04-23T07:38:05.229Z,225
2017-04-23T07:39:05.216Z,175
2017-04-23T07:40:05.228Z,180
2017-04-23T07:41:04.899Z,240
2017-04-23T07:42:05.558Z,315
2017-04-23T07:43:05.189Z,320
2017-04-23T07:44:05.183Z,335
2017-04-23T07:45:05.176Z,370
2017-04-23T07:46:05.163Z,290
2017-04-23T07:47:05.411Z,245
2017-04-23T07:48:04.848Z,240
2017-04-23T07:49:05.144Z,255
2017-04-23T07:50:05.137Z,270
2017-04-23T07:51:05.150Z,320
2017-04-23T07:52:05.118Z,345
2017-04-23T07:53:05.113Z,385
2017-04-23T07:54:05.102Z,390
2017-04-23T07:55:04.795Z,395
2017-04-23T07:56:05.089Z,390
2017-04-23T07:57:05.333Z,350
2017-04-23T07:58:04.774Z,390
2017-04-23T07:59:05.067Z,415
2017-04-23T08:00:05.060Z,460
2017-04-23T08:01:05.078Z,550
2017-04-23T08:02:05.294Z,765
2017-04-23T08:03:05.035Z,910
2017-04-23T08:04:05.032Z,790
2017-04-23T08:05:04.723Z,795
2017-04-23T08:06:05.015Z,770
2017-04-23T08:07:05.074Z,940
2017-04-23T08:08:05.009Z,1540
2017-04-23T08:09:04.994Z,1560
2017-04-23T08:10:04.688Z,1165
2017-04-23T08:11:04.690Z,935
2017-04-23T08:12:04.973Z,630
2017-04-23T08:13:04.979Z,620
2017-04-23T08:14:04.961Z,630
2017-04-23T08:15:04.660Z,585
2017-04-23T08:16:04.956Z,590
2017-04-23T08:17:05.209Z,660
2017-04-23T08:18:04.949Z,505
2017-04-23T08:19:04.636Z,570
2017-04-23T08:20:04.637Z,655
2017-04-23T08:21:04.932Z,740
2017-04-23T08:22:05.225Z,880
2017-04-23T08:23:04.619Z,660
2017-04-23T08:24:04.624Z,520
2017-04-23T08:25:04.615Z,425
2017-04-23T08:26:04.635Z,365
2017-04-23T08:27:04.877Z,390
2017-04-23T08:28:04.900Z,350
2017-04-23T08:29:04.894Z,275
2017-04-23T08:30:04.893Z,325
2017-04-23T08:31:04.584Z,405
2017-04-23T08:32:05.139Z,505
2017-04-23T08:33:04.279Z,620
2017-04-23T08:34:04.877Z,765
2017-04-23T08:35:04.879Z,930
2017-04-23T08:36:04.563Z,925
2017-04-23T08:37:04.806Z,865
2017-04-23T08:38:04.855Z,865
2017-04-23T08:39:04.862Z,785
2017-04-23T08:40:04.854Z,655
2017-04-23T08:41:04.544Z,565
2017-04-23T08:42:05.145Z,510
2017-04-23T08:43:04.836Z,475
2017-04-23T08:44:04.842Z,510
2017-04-23T08:45:04.834Z,595
2017-04-23T08:46:04.822Z,605
2017-04-23T08:47:04.821Z,650
2017-04-23T08:48:04.821Z,590
2017-04-23T08:49:04.810Z,500
2017-04-23T08:50:04.806Z,460
2017-04-23T08:51:04.801Z,475
2017-04-23T08:52:05.057Z,520
2017-04-23T08:53:04.494Z,450
2017-04-23T08:54:04.793Z,550
2017-04-23T08:55:04.491Z,630
2017-04-23T08:56:04.778Z,705
2017-04-23T08:57:04.724Z,765
2017-04-23T08:58:04.774Z,795
2017-04-23T08:59:04.768Z,925
2017-04-23T09:00:04.767Z,880
2017-04-23T09:01:04.457Z,765
2017-04-23T09:02:05.059Z,750
2017-04-23T09:03:04.753Z,775
2017-04-23T09:04:04.446Z,775
2017-04-23T09:05:04.747Z,810
2017-04-23T09:06:04.737Z,795
2017-04-23T09:07:05.057Z,840
2017-04-23T09:08:04.741Z,920
2017-04-23T09:09:04.438Z,915
2017-04-23T09:10:04.728Z,810
2017-04-23T09:11:04.418Z,625
2017-04-23T09:12:05.019Z,390
2017-04-23T09:13:04.720Z,280
2017-04-23T09:14:04.712Z,240
2017-04-23T09:15:04.714Z,225
2017-04-23T09:16:04.704Z,230
2017-04-23T09:17:05.056Z,285
2017-04-23T09:18:04.702Z,355
2017-04-23T09:19:04.391Z,350
2017-04-23T09:20:04.689Z,315
2017-04-23T09:21:04.691Z,360
2017-04-23T09:22:04.679Z,400
2017-04-23T09:23:04.681Z,360
2017-04-23T09:24:04.677Z,325
2017-04-23T09:25:04.676Z,370
2017-04-23T09:26:04.670Z,420
2017-04-23T09:27:04.911Z,420
2017-04-23T09:28:04.658Z,460
2017-04-23T09:29:04.651Z,600
2017-04-23T09:30:04.355Z,585
2017-04-23T09:31:04.639Z,430
2017-04-23T09:32:04.892Z,355
2017-04-23T09:33:04.632Z,315
2017-04-23T09:34:04.627Z,295
2017-04-23T09:35:04.629Z,300
2017-04-23T09:36:04.611Z,330
2017-04-23T09:37:04.916Z,355
2017-04-23T09:38:04.603Z,325
2017-04-23T09:39:04.650Z,290
2017-04-23T09:40:03.989Z,265
2017-04-23T09:41:04.591Z,245
2017-04-23T09:42:04.882Z,230
2017-04-23T09:43:04.581Z,205
2017-04-23T09:44:04.573Z,170
2017-04-23T09:45:04.269Z,155
2017-04-23T09:46:04.562Z,150
2017-04-23T09:47:04.855Z,155
2017-04-23T09:48:04.550Z,170
2017-04-23T09:49:04.239Z,165
2017-04-23T09:50:04.539Z,210
2017-04-23T09:51:04.532Z,210
2017-04-23T09:52:04.823Z,210
2017-04-23T09:53:04.515Z,265
2017-04-23T09:54:04.514Z,345
2017-04-23T09:55:04.509Z,430
2017-04-23T09:56:04.508Z,500
2017-04-23T09:57:04.737Z,495
2017-04-23T09:58:04.488Z,475
2017-04-23T09:59:04.478Z,495
2017-04-23T10:00:04.469Z,545
2017-04-23T10:01:04.160Z,525
2017-04-23T10:02:04.703Z,445
2017-04-23T10:03:04.452Z,360
2017-04-23T10:04:04.441Z,320
2017-04-23T10:05:04.434Z,280
2017-04-23T10:06:04.429Z,240
2017-04-23T10:07:04.368Z,215
2017-04-23T10:08:04.408Z,290
2017-04-23T10:09:04.097Z,325
2017-04-23T10:10:04.395Z,355
2017-04-23T10:11:04.079Z,400
2017-04-23T10:12:04.730Z,460
2017-04-23T10:13:04.371Z,500
2017-04-23T10:14:04.060Z,525
2017-04-23T10:15:04.363Z,535
2017-04-23T10:16:04.351Z,540
2017-04-23T10:17:04.634Z,540
2017-04-23T10:18:04.333Z,525
2017-04-23T10:19:04.314Z,475
2017-04-23T10:20:04.017Z,415
2017-04-23T10:21:04.308Z,380
2017-04-23T10:22:04.541Z,350
2017-04-23T10:23:04.285Z,330
2017-04-23T10:24:04.274Z,315
2017-04-23T10:25:04.265Z,305
2017-04-23T10:26:04.269Z,295
2017-04-23T10:27:04.501Z,290
2017-04-23T10:28:03.938Z,285
2017-04-23T10:29:04.233Z,285
2017-04-23T10:30:04.226Z,285
2017-04-23T10:31:04.220Z,285
2017-04-23T10:32:04.460Z,290
2017-04-23T10:33:03.593Z,320
2017-04-23T10:34:04.191Z,365
2017-04-23T10:35:04.193Z,425
2017-04-23T10:36:03.872Z,455
2017-04-23T10:37:04.418Z,500
2017-04-23T10:38:04.165Z,525
2017-04-23T10:39:03.850Z,525
2017-04-23T10:40:04.144Z,575
2017-04-23T10:41:04.133Z,670
2017-04-23T10:42:04.380Z,765
2017-04-23T10:43:04.159Z,780
2017-04-23T10:44:04.131Z,765
2017-04-23T10:45:04.109Z,750
2017-04-23T10:46:03.804Z,750
2017-04-23T10:47:04.444Z,735
2017-04-23T10:48:03.778Z,635
2017-04-23T10:49:04.075Z,525
2017-04-23T10:50:04.075Z,450
2017-04-23T10:51:03.780Z,435
2017-04-23T10:52:04.353Z,470
2017-04-23T10:53:04.049Z,495
2017-04-23T10:54:04.042Z,515
2017-04-23T10:55:04.037Z,455
2017-04-23T10:56:04.027Z,390
2017-04-23T10:57:04.275Z,340
2017-04-23T10:58:04.128Z,295
2017-04-23T10:59:04.006Z,285
2017-04-23T11:00:03.699Z,295
2017-04-23T11:01:04.011Z,325
2017-04-23T11:02:03.990Z,330
2017-04-23T11:03:04.005Z,290
2017-04-23T11:04:03.977Z,255
2017-04-23T11:05:03.977Z,240
2017-04-23T11:06:03.963Z,260
2017-04-23T11:07:04.255Z,275
2017-04-23T11:08:03.960Z,290
2017-04-23T11:09:03.945Z,300
2017-04-23T11:10:03.938Z,325
2017-04-23T11:11:03.927Z,370
2017-04-23T11:12:04.223Z,435
2017-04-23T11:13:03.921Z,450
2017-04-23T11:14:03.911Z,435
2017-04-23T11:15:03.914Z,405
2017-04-23T11:16:03.897Z,380
2017-04-23T11:17:04.232Z,370
2017-04-23T11:18:03.883Z,365
2017-04-23T11:19:03.584Z,350
2017-04-23T11:20:03.868Z,330
2017-04-23T11:21:03.564Z,320
2017-04-23T11:22:04.209Z,325
2017-04-23T11:23:03.851Z,350
2017-04-23T11:24:03.849Z,435
2017-04-23T11:25:03.837Z,485
2017-04-23T11:26:04.193Z,470
2017-04-23T11:27:03.821Z,435
2017-04-23T11:28:03.513Z,330
2017-04-23T11:29:03.854Z,220
2017-04-23T11:30:03.827Z,160
2017-04-23T11:31:03.495Z,165
2017-04-23T11:32:03.738Z,185
2017-04-23T11:33:03.793Z,265
2017-04-23T11:34:03.783Z,330
2017-04-23T11:35:03.775Z,345
2017-04-23T11:36:03.779Z,350
2017-04-23T11:37:03.755Z,335
2017-04-23T11:38:03.450Z,350
2017-04-23T11:39:03.745Z,380
2017-04-23T11:40:03.739Z,405
2017-04-23T11:41:03.731Z,435
2017-04-23T11:42:04.027Z,445
2017-04-23T11:43:03.729Z,365
2017-04-23T11:44:03.718Z,335
2017-04-23T11:45:03.710Z,310
2017-04-23T11:46:03.703Z,300
2017-04-23T11:47:03.992Z,285
2017-04-23T11:48:03.691Z,280
2017-04-23T11:49:03.679Z,290
2017-04-23T11:50:03.678Z,310
2017-04-23T11:51:03.365Z,340
2017-04-23T11:52:03.655Z,360
2017-04-23T11:53:03.657Z,375
2017-04-23T11:54:03.655Z,385
2017-04-23T11:55:03.637Z,410
2017-04-23T11:56:03.635Z,430
2017-04-23T11:57:03.979Z,465
2017-04-23T11:58:03.618Z,485
2017-04-23T11:59:03.622Z,495
2017-04-23T12:00:03.605Z,495
2017-04-23T12:01:03.598Z,495
2017-04-23T12:02:03.839Z,505
2017-04-23T12:03:03.588Z,535
2017-04-23T12:04:03.579Z,565
2017-04-23T12:05:03.567Z,590
2017-04-23T12:06:03.561Z,585
2017-04-23T12:07:03.853Z,560
2017-04-23T12:08:03.547Z,525
2017-04-23T12:09:03.539Z,475
2017-04-23T12:10:03.551Z,435
2017-04-23T12:11:03.236Z,385
2017-04-23T12:12:03.524Z,365
2017-04-23T12:13:03.514Z,360
2017-04-23T12:14:03.523Z,370
2017-04-23T12:15:03.198Z,390
2017-04-23T12:16:03.493Z,420
2017-04-23T12:17:03.433Z,430
2017-04-23T12:18:03.190Z,435
2017-04-23T12:19:03.172Z,450
2017-04-23T12:20:03.486Z,500
2017-04-23T12:21:03.461Z,515
2017-04-23T12:22:03.401Z,500
2017-04-23T12:23:03.142Z,505
2017-04-23T12:24:03.443Z,530
2017-04-23T12:25:03.438Z,570
2017-04-23T12:26:03.429Z,585
2017-04-23T12:27:03.722Z,590
2017-04-23T12:28:03.116Z,600
2017-04-23T12:29:03.110Z,595
2017-04-23T12:30:02.797Z,580
2017-04-23T12:31:03.292Z,560
2017-04-23T12:32:03.691Z,565
2017-04-23T12:33:03.380Z,605
2017-04-23T12:34:03.759Z,630
2017-04-23T12:35:03.430Z,620
2017-04-23T12:36:03.381Z,610
2017-04-23T12:37:03.778Z,580
2017-04-23T12:38:03.402Z,600
2017-04-23T12:39:03.402Z,595
2017-04-23T12:40:03.407Z,595
2017-04-23T12:41:03.402Z,580
2017-04-23T12:42:02.797Z,560
2017-04-23T12:43:03.398Z,525
2017-04-23T12:44:03.586Z,420
2017-04-23T12:45:03.404Z,345
2017-04-23T12:46:03.396Z,315
2017-04-23T12:47:03.328Z,290
2017-04-23T12:48:03.620Z,300
2017-04-23T12:49:03.330Z,345
2017-04-23T12:50:03.456Z,365
2017-04-23T12:51:03.541Z,390
2017-04-23T12:52:03.358Z,395
2017-04-23T12:53:03.638Z,370
2017-04-23T12:54:03.553Z,335
2017-04-23T12:55:03.338Z,310
2017-04-23T12:56:03.376Z,295
2017-04-23T12:57:02.961Z,285
2017-04-23T12:58:03.314Z,275
2017-04-23T12:59:03.407Z,260
2017-04-23T13:00:03.265Z,240
2017-04-23T13:01:03.358Z,225
2017-04-23T13:02:02.947Z,215
2017-04-23T13:03:03.529Z,205
2017-04-23T13:04:02.978Z,205
2017-04-23T13:05:03.414Z,205
2017-04-23T13:06:03.240Z,200
2017-04-23T13:07:03.295Z,205
2017-04-23T13:08:03.605Z,200
2017-04-23T13:09:03.034Z,200
2017-04-23T13:10:03.296Z,200
2017-04-23T13:11:03.171Z,200
2017-04-23T13:12:02.866Z,205
2017-04-23T13:13:03.452Z,205
2017-04-23T13:14:03.206Z,205
2017-04-23T13:15:03.204Z,205
2017-04-23T13:16:03.277Z,210
2017-04-23T13:17:03.159Z,210
2017-04-23T13:18:03.173Z,210
2017-04-23T13:19:03.221Z,205
2017-04-23T13:20:03.181Z,205
2017-04-23T13:21:03.150Z,215
2017-04-23T13:22:02.815Z,205
2017-04-23T13:23:03.448Z,195
2017-04-23T13:24:02.615Z,200
2017-04-23T13:25:03.125Z,240
2017-04-23T13:26:03.160Z,285
2017-04-23T13:27:03.105Z,345
2017-04-23T13:28:03.130Z,395
2017-04-23T13:29:03.099Z,425
2017-04-23T13:30:02.459Z,415
2017-04-23T13:31:03.085Z,420
2017-04-23T13:32:03.091Z,400
2017-04-23T13:33:03.325Z,340
2017-04-23T13:34:02.762Z,265
2017-04-23T13:35:03.078Z,260
2017-04-23T13:36:03.024Z,265
2017-04-23T13:37:03.123Z,280
2017-04-23T13:38:03.067Z,275
2017-04-23T13:39:03.040Z,250
2017-04-23T13:40:03.109Z,250
2017-04-23T13:41:03.093Z,260
2017-04-23T13:42:02.904Z,260
2017-04-23T13:43:03.288Z,240
2017-04-23T13:44:02.663Z,230
2017-04-23T13:45:03.025Z,240
2017-04-23T13:46:02.960Z,255
2017-04-23T13:47:02.992Z,270
2017-04-23T13:48:03.294Z,280
2017-04-23T13:49:02.987Z,330
2017-04-23T13:50:02.627Z,400
2017-04-23T13:51:02.942Z,480
2017-04-23T13:52:03.019Z,485
2017-04-23T13:53:03.407Z,485
2017-04-23T13:54:03.051Z,470
2017-04-23T13:55:02.944Z,465
2017-04-23T13:56:02.913Z,440
2017-04-23T13:57:02.958Z,450
2017-04-23T13:58:03.235Z,435
2017-04-23T13:59:02.314Z,375
2017-04-23T14:00:03.329Z,315
2017-04-23T14:01:02.941Z,320
2017-04-23T14:02:02.949Z,330
2017-04-23T14:03:03.138Z,335
2017-04-23T14:04:03.227Z,355